createdAt,value
2022-10-17T00:00:07.464Z,323
2022-10-17T00:00:37.951Z,323
2022-10-17T00:01:09.941Z,323
2022-10-17T00:01:41.964Z,323
2022-10-17T00:02:14.279Z,323
2022-10-17T00:02:45.870Z,323
2022-10-17T00:03:17.745Z,323
2022-10-17T00:03:49.982Z,323
2022-10-17T00:04:21.952Z,323
2022-10-17T00:04:53.867Z,322
2022-10-17T00:05:26.148Z,323
2022-10-17T00:05:58.459Z,323
2022-10-17T00:06:29.728Z,323
2022-10-17T00:07:01.911Z,322
2022-10-17T00:07:17.715Z,323
2022-10-17T00:07:49.793Z,323
2022-10-17T00:08:34.058Z,323
2022-10-17T00:09:05.926Z,323
2022-10-17T00:09:37.566Z,323
2022-10-17T00:10:09.796Z,323
2022-10-17T00:10:41.614Z,323
2022-10-17T00:11:13.771Z,323
2022-10-17T00:11:45.641Z,323
2022-10-17T00:12:01.818Z,323
2022-10-17T00:12:45.365Z,323
2022-10-17T00:13:17.509Z,323
2022-10-17T00:13:49.482Z,323
2022-10-17T00:14:21.347Z,323
2022-10-17T00:14:53.542Z,323
2022-10-17T00:15:25.858Z,323
2022-10-17T00:15:57.477Z,323
2022-10-17T00:16:29.173Z,323
2022-10-17T00:17:01.435Z,323
2022-10-17T00:17:33.587Z,323
2022-10-17T00:18:05.749Z,323
2022-10-17T00:18:37.103Z,323
2022-10-17T00:19:09.144Z,323
2022-10-17T00:19:41.355Z,323
2022-10-17T00:20:13.766Z,323
2022-10-17T00:20:45.014Z,323
2022-10-17T00:21:01.493Z,323
2022-10-17T00:21:33.424Z,323
2022-10-17T00:22:17.167Z,323
2022-10-17T00:22:49.163Z,323
2022-10-17T00:23:20.937Z,323
2022-10-17T00:23:53.109Z,323
2022-10-17T00:24:25.182Z,323
2022-10-17T00:24:56.999Z,323
2022-10-17T00:25:29.107Z,323
2022-10-17T00:26:01.042Z,323
2022-10-17T00:26:32.988Z,322
2022-10-17T00:27:05.683Z,322
2022-10-17T00:27:36.890Z,322
2022-10-17T00:28:08.814Z,322
2022-10-17T00:28:41.018Z,322
2022-10-17T00:29:13.107Z,323
2022-10-17T00:29:44.735Z,323
2022-10-17T00:30:02.781Z,323
2022-10-17T00:30:44.846Z,323
2022-10-17T00:31:16.760Z,323
2022-10-17T00:31:48.789Z,323
2022-10-17T00:32:20.574Z,323
2022-10-17T00:32:52.642Z,323
2022-10-17T00:33:24.841Z,323
2022-10-17T00:33:56.750Z,323
2022-10-17T00:34:28.437Z,323
2022-10-17T00:35:00.872Z,323
2022-10-17T00:35:32.611Z,323
2022-10-17T00:36:05.200Z,323
2022-10-17T00:36:36.363Z,323
2022-10-17T00:37:08.525Z,323
2022-10-17T00:37:40.566Z,323
2022-10-17T00:38:12.418Z,323
2022-10-17T00:38:44.517Z,323
2022-10-17T00:39:16.282Z,323
2022-10-17T00:39:48.378Z,323
2022-10-17T00:40:20.677Z,323
2022-10-17T00:40:57.375Z,323
2022-10-17T00:41:24.302Z,323
2022-10-17T00:41:56.472Z,323
2022-10-17T00:42:28.627Z,323
2022-10-17T00:43:00.133Z,323
2022-10-17T00:43:32.238Z,323
2022-10-17T00:44:05.028Z,323
2022-10-17T00:44:36.220Z,323
2022-10-17T00:45:09.157Z,323
2022-10-17T00:45:24.401Z,323
2022-10-17T00:45:56.428Z,323
2022-10-17T00:46:40.264Z,323
2022-10-17T00:47:11.970Z,323
2022-10-17T00:47:44.210Z,323
2022-10-17T00:48:00.257Z,323
2022-10-17T00:48:44.207Z,323
2022-10-17T00:49:15.992Z,323
2022-10-17T00:49:47.868Z,323
2022-10-17T00:50:20.149Z,323
2022-10-17T00:50:51.889Z,323
2022-10-17T00:51:24.105Z,323
2022-10-17T00:51:55.883Z,323
2022-10-17T00:52:27.860Z,323
2022-10-17T00:52:59.878Z,323
2022-10-17T00:53:31.898Z,323
2022-10-17T00:54:04.415Z,323
2022-10-17T00:54:35.673Z,323
2022-10-17T00:55:07.938Z,323
2022-10-17T00:55:39.891Z,323
2022-10-17T00:56:11.673Z,323
2022-10-17T00:56:43.903Z,323
2022-10-17T00:56:59.780Z,323
2022-10-17T00:57:31.592Z,323
2022-10-17T00:57:47.605Z,323
2022-10-17T00:58:19.507Z,323
2022-10-17T00:58:51.453Z,323
2022-10-17T00:59:23.707Z,323
2022-10-17T00:59:55.626Z,323
2022-10-17T01:00:27.753Z,323
2022-10-17T01:00:59.496Z,323
2022-10-17T01:01:15.550Z,323
2022-10-17T01:01:47.492Z,322
2022-10-17T01:02:31.714Z,323
2022-10-17T01:03:03.991Z,323
2022-10-17T01:03:19.411Z,323
2022-10-17T01:03:51.349Z,323
2022-10-17T01:04:35.549Z,323
2022-10-17T01:05:07.562Z,323
2022-10-17T01:05:39.129Z,323
2022-10-17T01:06:11.423Z,323
2022-10-17T01:06:43.482Z,323
2022-10-17T01:07:15.473Z,323
2022-10-17T01:07:47.096Z,323
2022-10-17T01:08:19.159Z,323
2022-10-17T01:08:51.156Z,323
2022-10-17T01:09:23.226Z,323
2022-10-17T01:09:55.198Z,323
2022-10-17T01:10:27.253Z,323
2022-10-17T01:10:59.106Z,323
2022-10-17T01:11:31.278Z,323
2022-10-17T01:12:03.317Z,323
2022-10-17T01:12:35.029Z,323
2022-10-17T01:13:06.908Z,323
2022-10-17T01:13:38.890Z,323
2022-10-17T01:14:10.965Z,323
2022-10-17T01:14:42.771Z,323
2022-10-17T01:15:16.219Z,323
2022-10-17T01:15:46.925Z,323
2022-10-17T01:16:21.719Z,323
2022-10-17T01:16:50.750Z,326
2022-10-17T01:17:22.791Z,341
2022-10-17T01:17:54.967Z,341
2022-10-17T01:18:26.871Z,340
2022-10-17T01:18:58.706Z,340
2022-10-17T01:19:30.672Z,285
2022-10-17T01:20:03.875Z,272
2022-10-17T01:20:34.597Z,272
2022-10-17T01:21:06.596Z,273
2022-10-17T01:21:38.624Z,273
2022-10-17T01:22:10.734Z,273
2022-10-17T01:22:42.462Z,273
2022-10-17T01:22:58.648Z,273
2022-10-17T01:23:42.458Z,273
2022-10-17T01:24:14.582Z,286
2022-10-17T01:24:46.613Z,286
2022-10-17T01:25:18.496Z,286
2022-10-17T01:25:50.431Z,286
2022-10-17T01:26:22.384Z,287
2022-10-17T01:26:54.457Z,299
2022-10-17T01:27:26.355Z,299
2022-10-17T01:27:58.334Z,299
2022-10-17T01:28:30.463Z,298
2022-10-17T01:29:02.817Z,299
2022-10-17T01:29:34.377Z,298
2022-10-17T01:30:07.312Z,281
2022-10-17T01:30:38.273Z,308
2022-10-17T01:31:10.368Z,308
2022-10-17T01:31:42.188Z,308
2022-10-17T01:31:58.192Z,308
2022-10-17T01:32:30.458Z,308
2022-10-17T01:32:46.186Z,308
2022-10-17T01:33:18.084Z,308
2022-10-17T01:33:50.090Z,308
2022-10-17T01:34:22.103Z,308
2022-10-17T01:34:54.103Z,308
2022-10-17T01:35:31.490Z,308
2022-10-17T01:36:01.826Z,308
2022-10-17T01:36:14.170Z,308
2022-10-17T01:36:45.967Z,308
2022-10-17T01:37:30.115Z,308
2022-10-17T01:38:02.678Z,308
2022-10-17T01:38:33.950Z,308
2022-10-17T01:39:05.914Z,308
2022-10-17T01:39:38.701Z,308
2022-10-17T01:40:10.203Z,308
2022-10-17T01:40:42.070Z,308
2022-10-17T01:40:58.413Z,308
2022-10-17T01:41:41.896Z,308
2022-10-17T01:42:13.820Z,308
2022-10-17T01:42:45.776Z,308
2022-10-17T01:43:17.603Z,308
2022-10-17T01:43:49.729Z,308
2022-10-17T01:44:21.667Z,308
2022-10-17T01:44:53.601Z,308
2022-10-17T01:45:26.035Z,307
2022-10-17T01:45:57.954Z,307
2022-10-17T01:46:29.702Z,307
2022-10-17T01:47:01.906Z,307
2022-10-17T01:47:33.465Z,307
2022-10-17T01:48:05.806Z,307
2022-10-17T01:48:37.459Z,307
2022-10-17T01:49:09.337Z,307
2022-10-17T01:49:41.515Z,307
2022-10-17T01:50:13.862Z,307
2022-10-17T01:50:45.535Z,307
2022-10-17T01:51:17.278Z,308
2022-10-17T01:51:49.260Z,308
2022-10-17T01:52:21.457Z,307
2022-10-17T01:52:53.532Z,307
2022-10-17T01:53:25.257Z,307
2022-10-17T01:53:57.277Z,308
2022-10-17T01:54:13.373Z,308
2022-10-17T01:54:45.477Z,307
2022-10-17T01:55:29.543Z,308
2022-10-17T01:56:01.219Z,307
2022-10-17T01:56:33.304Z,308
2022-10-17T01:57:05.271Z,308
2022-10-17T01:57:37.105Z,308
2022-10-17T01:58:09.007Z,308
2022-10-17T01:58:41.263Z,308
2022-10-17T01:58:57.225Z,307
2022-10-17T01:59:41.185Z,307
2022-10-17T02:00:14.462Z,307
2022-10-17T02:00:45.161Z,307
2022-10-17T02:01:17.000Z,307
2022-10-17T02:01:48.940Z,308
2022-10-17T02:02:21.025Z,308
2022-10-17T02:02:52.734Z,308
2022-10-17T02:03:30.044Z,308
2022-10-17T02:03:56.918Z,308
2022-10-17T02:04:28.884Z,308
2022-10-17T02:05:32.764Z,308
2022-10-17T02:06:05.084Z,308
2022-10-17T02:06:36.734Z,276
2022-10-17T02:07:08.628Z,275
2022-10-17T02:07:40.797Z,275
2022-10-17T02:07:56.867Z,275
2022-10-17T02:08:28.508Z,275
2022-10-17T02:08:44.830Z,275
2022-10-17T02:09:16.469Z,275
2022-10-17T02:09:48.541Z,275
2022-10-17T02:10:20.814Z,275
2022-10-17T02:10:52.531Z,275
2022-10-17T02:11:24.645Z,278
2022-10-17T02:11:56.617Z,277
2022-10-17T02:12:12.544Z,278
2022-10-17T02:12:44.451Z,278
2022-10-17T02:13:28.494Z,278
2022-10-17T02:14:00.471Z,278
2022-10-17T02:14:32.286Z,256
2022-10-17T02:15:06.769Z,256
2022-10-17T02:15:36.391Z,261
2022-10-17T02:16:08.268Z,262
2022-10-17T02:16:40.308Z,261
2022-10-17T02:16:56.568Z,261
2022-10-17T02:17:45.272Z,262
2022-10-17T02:18:12.340Z,261
2022-10-17T02:18:44.321Z,261
2022-10-17T02:19:16.246Z,261
2022-10-17T02:19:48.219Z,261
2022-10-17T02:20:20.484Z,262
2022-10-17T02:20:52.020Z,261
2022-10-17T02:21:24.280Z,261
2022-10-17T02:21:56.294Z,260
2022-10-17T02:22:28.104Z,103
2022-10-17T02:22:59.949Z,112
2022-10-17T02:23:32.051Z,115
2022-10-17T02:24:04.575Z,115
2022-10-17T02:24:36.062Z,110
2022-10-17T02:25:08.055Z,112
2022-10-17T02:25:39.968Z,60
2022-10-17T02:26:11.991Z,60
2022-10-17T02:26:44.106Z,50
2022-10-17T02:27:15.834Z,50
2022-10-17T02:27:47.855Z,48
2022-10-17T02:28:19.881Z,48
2022-10-17T02:28:52.086Z,48
2022-10-17T02:29:23.822Z,49
2022-10-17T02:29:55.857Z,48
2022-10-17T02:30:12.903Z,48
2022-10-17T02:30:43.568Z,48
2022-10-17T02:31:27.749Z,48
2022-10-17T02:31:59.515Z,42
2022-10-17T02:32:31.550Z,31
2022-10-17T02:33:04.344Z,28
2022-10-17T02:33:35.712Z,27
2022-10-17T02:34:07.476Z,27
2022-10-17T02:34:39.595Z,27
2022-10-17T02:35:11.886Z,27
2022-10-17T02:35:43.457Z,27
2022-10-17T02:36:15.497Z,27
2022-10-17T02:36:47.431Z,27
2022-10-17T02:37:19.353Z,27
2022-10-17T02:37:51.566Z,27
2022-10-17T02:38:23.521Z,27
2022-10-17T02:38:55.399Z,27
2022-10-17T02:39:11.575Z,27
2022-10-17T02:39:55.418Z,27
2022-10-17T02:40:27.628Z,27
2022-10-17T02:40:59.163Z,27
2022-10-17T02:41:31.215Z,27
2022-10-17T02:42:03.930Z,27
2022-10-17T02:42:35.455Z,27
2022-10-17T02:43:07.045Z,27
2022-10-17T02:43:39.187Z,27
2022-10-17T02:44:11.345Z,27
2022-10-17T02:44:43.202Z,27
2022-10-17T02:45:16.470Z,27
2022-10-17T02:45:47.065Z,27
2022-10-17T02:46:18.982Z,27
2022-10-17T02:46:51.141Z,27
2022-10-17T02:47:22.986Z,27
2022-10-17T02:47:55.262Z,27
2022-10-17T02:48:27.087Z,27
2022-10-17T02:48:58.968Z,27
2022-10-17T02:49:30.987Z,27
2022-10-17T02:50:04.334Z,27
2022-10-17T02:50:34.962Z,27
2022-10-17T02:51:06.951Z,27
2022-10-17T02:51:38.767Z,27
2022-10-17T02:52:10.864Z,27
2022-10-17T02:52:27.484Z,27
2022-10-17T02:52:58.732Z,27
2022-10-17T02:53:42.776Z,27
2022-10-17T02:54:14.879Z,27
2022-10-17T02:54:46.671Z,27
2022-10-17T02:55:19.017Z,27
2022-10-17T02:55:50.805Z,27
2022-10-17T02:56:22.723Z,27
2022-10-17T02:56:54.825Z,27
2022-10-17T02:57:10.810Z,27
2022-10-17T02:57:55.066Z,27
2022-10-17T02:58:26.908Z,27
2022-10-17T02:58:58.389Z,27
2022-10-17T02:59:30.620Z,27
2022-10-17T03:00:06.004Z,27
2022-10-17T03:00:34.687Z,27
2022-10-17T03:01:06.572Z,27
2022-10-17T03:01:38.615Z,27
2022-10-17T03:01:55.066Z,27
2022-10-17T03:02:26.910Z,27
2022-10-17T03:02:42.500Z,27
2022-10-17T03:03:16.187Z,27
2022-10-17T03:03:46.452Z,27
2022-10-17T03:04:18.383Z,27
2022-10-17T03:04:50.561Z,27
2022-10-17T03:05:22.471Z,27
2022-10-17T03:05:54.659Z,27
2022-10-17T03:06:10.385Z,27
2022-10-17T03:06:42.279Z,27
2022-10-17T03:07:26.501Z,27
2022-10-17T03:07:58.095Z,27
2022-10-17T03:08:14.312Z,27
2022-10-17T03:08:46.154Z,27
2022-10-17T03:09:30.265Z,27
2022-10-17T03:10:03.519Z,27
2022-10-17T03:10:34.201Z,27
2022-10-17T03:11:06.017Z,27
2022-10-17T03:11:38.043Z,27
2022-10-17T03:12:10.117Z,27
2022-10-17T03:12:42.069Z,27
2022-10-17T03:13:14.227Z,27
2022-10-17T03:13:46.117Z,27
2022-10-17T03:14:18.045Z,27
2022-10-17T03:14:49.729Z,27
2022-10-17T03:15:22.296Z,27
2022-10-17T03:15:54.539Z,26
2022-10-17T03:16:26.110Z,26
2022-10-17T03:16:57.818Z,26
2022-10-17T03:17:29.878Z,26
2022-10-17T03:18:02.306Z,26
2022-10-17T03:18:33.994Z,26
2022-10-17T03:19:05.864Z,26
2022-10-17T03:19:37.698Z,26
2022-10-17T03:20:09.991Z,26
2022-10-17T03:20:41.952Z,26
2022-10-17T03:21:13.753Z,26
2022-10-17T03:21:45.793Z,26
2022-10-17T03:22:17.737Z,26
2022-10-17T03:22:49.434Z,26
2022-10-17T03:23:05.900Z,26
2022-10-17T03:23:37.567Z,26
2022-10-17T03:24:21.589Z,26
2022-10-17T03:24:53.946Z,25
2022-10-17T03:25:30.794Z,26
2022-10-17T03:25:41.677Z,26
2022-10-17T03:26:25.530Z,26
2022-10-17T03:26:57.519Z,26
2022-10-17T03:27:29.916Z,26
2022-10-17T03:28:01.577Z,26
2022-10-17T03:28:17.546Z,26
2022-10-17T03:28:51.958Z,26
2022-10-17T03:29:33.592Z,26
2022-10-17T03:30:06.953Z,26
2022-10-17T03:30:37.153Z,26
2022-10-17T03:30:53.968Z,26
2022-10-17T03:31:37.266Z,25
2022-10-17T03:32:09.236Z,26
2022-10-17T03:32:41.288Z,25
2022-10-17T03:33:13.250Z,25
2022-10-17T03:33:45.198Z,26
2022-10-17T03:34:17.039Z,25
2022-10-17T03:34:49.205Z,26
2022-10-17T03:35:21.307Z,25
2022-10-17T03:35:53.020Z,25
2022-10-17T03:36:25.220Z,25
2022-10-17T03:36:57.120Z,25
2022-10-17T03:37:28.988Z,26
2022-10-17T03:38:00.984Z,25
2022-10-17T03:38:32.920Z,26
2022-10-17T03:39:05.569Z,25
2022-10-17T03:39:36.802Z,25
2022-10-17T03:39:53.018Z,25
2022-10-17T03:40:25.180Z,25
2022-10-17T03:40:40.869Z,25
2022-10-17T03:41:12.905Z,25
2022-10-17T03:41:44.841Z,25
2022-10-17T03:42:17.107Z,25
2022-10-17T03:42:48.775Z,25
2022-10-17T03:43:20.847Z,25
2022-10-17T03:43:52.658Z,25
2022-10-17T03:44:08.778Z,25
2022-10-17T03:44:40.630Z,25
2022-10-17T03:45:25.319Z,25
2022-10-17T03:45:56.586Z,25
2022-10-17T03:46:28.491Z,25
2022-10-17T03:47:00.696Z,25
2022-10-17T03:47:32.785Z,25
2022-10-17T03:48:04.865Z,25
2022-10-17T03:48:36.494Z,25
2022-10-17T03:48:52.502Z,25
2022-10-17T03:49:36.475Z,25
2022-10-17T03:50:08.678Z,25
2022-10-17T03:50:40.377Z,25
2022-10-17T03:51:12.325Z,25
2022-10-17T03:51:44.497Z,25
2022-10-17T03:52:16.435Z,25
2022-10-17T03:52:48.179Z,25
2022-10-17T03:53:20.288Z,25
2022-10-17T03:53:52.326Z,25
2022-10-17T03:54:24.593Z,25
2022-10-17T03:54:56.113Z,25
2022-10-17T03:55:28.418Z,25
2022-10-17T03:56:00.230Z,25
2022-10-17T03:56:32.180Z,25
2022-10-17T03:57:04.894Z,22
2022-10-17T03:57:36.081Z,20
2022-10-17T03:58:08.012Z,20
2022-10-17T03:58:40.228Z,20
2022-10-17T03:59:11.981Z,20
2022-10-17T03:59:44.043Z,20
2022-10-17T04:00:17.000Z,20
2022-10-17T04:00:47.945Z,20
2022-10-17T04:01:19.919Z,20
2022-10-17T04:01:52.031Z,20
2022-10-17T04:02:07.881Z,20
2022-10-17T04:02:40.790Z,20
2022-10-17T04:03:24.193Z,20
2022-10-17T04:03:55.996Z,20
2022-10-17T04:04:27.886Z,20
2022-10-17T04:04:59.669Z,20
2022-10-17T04:05:32.121Z,20
2022-10-17T04:06:04.619Z,20
2022-10-17T04:06:35.822Z,20
2022-10-17T04:06:51.940Z,20
2022-10-17T04:07:35.753Z,20
2022-10-17T04:08:07.766Z,20
2022-10-17T04:08:39.644Z,20
2022-10-17T04:09:11.666Z,20
2022-10-17T04:09:43.746Z,20
2022-10-17T04:10:15.960Z,20
2022-10-17T04:10:47.395Z,20
2022-10-17T04:11:19.606Z,20
2022-10-17T04:11:51.533Z,20
2022-10-17T04:12:23.589Z,20
2022-10-17T04:12:55.615Z,20
2022-10-17T04:13:27.450Z,20
2022-10-17T04:13:59.368Z,20
2022-10-17T04:14:31.512Z,20
2022-10-17T04:15:06.478Z,20
2022-10-17T04:15:35.382Z,20
2022-10-17T04:16:07.472Z,20
2022-10-17T04:16:39.484Z,20
2022-10-17T04:17:11.290Z,20
2022-10-17T04:17:43.260Z,20
2022-10-17T04:18:15.331Z,20
2022-10-17T04:18:47.226Z,20
2022-10-17T04:19:19.158Z,20
2022-10-17T04:19:51.258Z,20
2022-10-17T04:20:07.495Z,20
2022-10-17T04:20:39.121Z,20
2022-10-17T04:21:28.324Z,20
2022-10-17T04:21:55.342Z,20
2022-10-17T04:22:27.507Z,20
2022-10-17T04:22:59.011Z,20
2022-10-17T04:23:31.219Z,20
2022-10-17T04:24:03.990Z,20
2022-10-17T04:24:34.994Z,20
2022-10-17T04:25:07.269Z,20
2022-10-17T04:25:39.036Z,20
2022-10-17T04:26:10.990Z,20
2022-10-17T04:26:43.054Z,20
2022-10-17T04:27:15.313Z,20
2022-10-17T04:27:46.891Z,20
2022-10-17T04:28:18.874Z,20
2022-10-17T04:28:50.765Z,20
2022-10-17T04:29:22.938Z,20
2022-10-17T04:29:55.127Z,20
2022-10-17T04:30:27.140Z,20
2022-10-17T04:30:58.714Z,20
2022-10-17T04:31:30.904Z,20
2022-10-17T04:32:03.730Z,20
2022-10-17T04:32:34.957Z,20
2022-10-17T04:33:06.834Z,20
2022-10-17T04:33:38.641Z,20
2022-10-17T04:34:10.745Z,20
2022-10-17T04:34:42.548Z,20
2022-10-17T04:35:14.982Z,20
2022-10-17T04:35:46.601Z,20
2022-10-17T04:36:18.625Z,20
2022-10-17T04:36:50.351Z,20
2022-10-17T04:37:06.682Z,20
2022-10-17T04:37:38.623Z,20
2022-10-17T04:38:26.256Z,20
2022-10-17T04:38:54.771Z,20
2022-10-17T04:39:26.252Z,20
2022-10-17T04:39:58.381Z,20
2022-10-17T04:40:30.695Z,20
2022-10-17T04:41:02.492Z,20
2022-10-17T04:41:34.452Z,20
2022-10-17T04:41:50.291Z,20
2022-10-17T04:42:34.610Z,20
2022-10-17T04:42:50.359Z,20
2022-10-17T04:43:34.501Z,20
2022-10-17T04:44:06.433Z,20
2022-10-17T04:44:38.121Z,20
2022-10-17T04:45:10.949Z,20
2022-10-17T04:45:42.260Z,20
2022-10-17T04:46:14.247Z,20
2022-10-17T04:46:46.163Z,20
2022-10-17T04:47:18.034Z,20
2022-10-17T04:47:50.023Z,20
2022-10-17T04:48:22.081Z,20
2022-10-17T04:48:53.926Z,20
2022-10-17T04:49:26.047Z,20
2022-10-17T04:49:57.976Z,20
2022-10-17T04:50:30.273Z,20
2022-10-17T04:51:02.040Z,20
2022-10-17T04:51:34.029Z,20
2022-10-17T04:52:05.916Z,20
2022-10-17T04:52:37.975Z,20
2022-10-17T04:53:09.745Z,20
2022-10-17T04:53:41.813Z,20
2022-10-17T04:54:13.919Z,20
2022-10-17T04:54:45.922Z,20
2022-10-17T04:55:17.720Z,20
2022-10-17T04:55:49.640Z,20
2022-10-17T04:56:21.882Z,20
2022-10-17T04:56:53.747Z,20
2022-10-17T04:57:25.607Z,20
2022-10-17T04:57:57.773Z,20
2022-10-17T04:58:29.482Z,20
2022-10-17T04:59:01.875Z,20
2022-10-17T04:59:33.737Z,20
2022-10-17T04:59:49.683Z,20
2022-10-17T05:00:34.245Z,20
2022-10-17T05:01:05.771Z,20
2022-10-17T05:01:37.494Z,20
2022-10-17T05:02:09.268Z,20
2022-10-17T05:02:41.419Z,20
2022-10-17T05:03:13.525Z,20
2022-10-17T05:03:45.450Z,20
2022-10-17T05:04:19.923Z,20
2022-10-17T05:04:49.278Z,20
2022-10-17T05:05:21.497Z,20
2022-10-17T05:05:53.424Z,20
2022-10-17T05:06:25.244Z,20
2022-10-17T05:06:57.172Z,20
2022-10-17T05:07:29.173Z,20
2022-10-17T05:08:01.444Z,20
2022-10-17T05:08:33.086Z,20
2022-10-17T05:09:05.664Z,20
2022-10-17T05:09:21.213Z,20
2022-10-17T05:10:05.758Z,20
2022-10-17T05:10:37.201Z,20
2022-10-17T05:11:08.955Z,20
2022-10-17T05:11:41.061Z,20
2022-10-17T05:12:13.024Z,20
2022-10-17T05:12:44.975Z,20
2022-10-17T05:13:22.142Z,20
2022-10-17T05:13:48.903Z,20
2022-10-17T05:14:20.928Z,20
2022-10-17T05:14:53.093Z,20
2022-10-17T05:15:30.506Z,20
2022-10-17T05:15:56.892Z,20
2022-10-17T05:16:28.878Z,20
2022-10-17T05:17:01.011Z,20
2022-10-17T05:17:32.618Z,20
2022-10-17T05:17:49.021Z,20
2022-10-17T05:18:32.732Z,20
2022-10-17T05:19:05.190Z,20
2022-10-17T05:19:36.906Z,20
2022-10-17T05:20:08.752Z,20
2022-10-17T05:20:40.724Z,20
2022-10-17T05:21:12.690Z,20
2022-10-17T05:21:44.642Z,20
2022-10-17T05:22:16.680Z,20
2022-10-17T05:22:48.552Z,20
2022-10-17T05:23:05.348Z,20
2022-10-17T05:23:48.594Z,20
2022-10-17T05:24:20.650Z,20
2022-10-17T05:24:52.465Z,20
2022-10-17T05:25:24.761Z,20
2022-10-17T05:25:56.521Z,20
2022-10-17T05:26:33.786Z,20
2022-10-17T05:27:00.440Z,20
2022-10-17T05:27:32.487Z,20
2022-10-17T05:28:05.291Z,20
2022-10-17T05:28:36.411Z,20
2022-10-17T05:29:08.403Z,20
2022-10-17T05:29:40.345Z,20
2022-10-17T05:30:13.452Z,20
2022-10-17T05:30:44.655Z,20
2022-10-17T05:31:16.345Z,20
2022-10-17T05:31:48.219Z,20
2022-10-17T05:32:05.354Z,20
2022-10-17T05:32:36.065Z,20
2022-10-17T05:33:20.242Z,20
2022-10-17T05:33:52.142Z,20
2022-10-17T05:34:24.050Z,20
2022-10-17T05:34:56.308Z,20
2022-10-17T05:35:28.460Z,20
2022-10-17T05:35:59.841Z,20
2022-10-17T05:36:32.064Z,20
2022-10-17T05:37:04.780Z,20
2022-10-17T05:37:36.032Z,20
2022-10-17T05:38:07.882Z,20
2022-10-17T05:38:39.894Z,20
2022-10-17T05:39:12.118Z,20
2022-10-17T05:39:47.946Z,20
2022-10-17T05:40:16.101Z,20
2022-10-17T05:40:47.744Z,20
2022-10-17T05:41:04.944Z,20
2022-10-17T05:41:48.065Z,20
2022-10-17T05:42:19.893Z,20
2022-10-17T05:42:51.747Z,20
2022-10-17T05:43:23.805Z,20
2022-10-17T05:43:55.905Z,20
2022-10-17T05:44:27.747Z,20
2022-10-17T05:44:59.637Z,20
2022-10-17T05:45:32.171Z,20
2022-10-17T05:46:04.791Z,20
2022-10-17T05:46:36.015Z,20
2022-10-17T05:47:07.853Z,20
2022-10-17T05:47:39.709Z,20
2022-10-17T05:48:11.800Z,20
2022-10-17T05:48:44.051Z,20
2022-10-17T05:49:32.221Z,20
2022-10-17T05:49:51.377Z,20
2022-10-17T05:50:05.051Z,20
2022-10-17T05:50:35.876Z,20
2022-10-17T05:51:19.675Z,20
2022-10-17T05:51:51.422Z,20
2022-10-17T05:52:23.529Z,20
2022-10-17T05:52:55.643Z,20
2022-10-17T05:53:27.287Z,20
2022-10-17T05:53:59.379Z,20
2022-10-17T05:54:31.458Z,20
2022-10-17T05:55:04.921Z,20
2022-10-17T05:55:35.711Z,20
2022-10-17T05:56:07.274Z,20
2022-10-17T05:56:39.332Z,20
2022-10-17T05:57:11.511Z,20
2022-10-17T05:57:43.583Z,20
2022-10-17T05:58:22.111Z,20
2022-10-17T05:58:52.303Z,20
2022-10-17T05:59:19.336Z,20
2022-10-17T05:59:51.257Z,20
2022-10-17T06:00:32.252Z,20
2022-10-17T06:00:55.327Z,20
2022-10-17T06:01:27.209Z,20
2022-10-17T06:01:59.322Z,20
2022-10-17T06:02:31.500Z,20
2022-10-17T06:03:03.647Z,20
2022-10-17T06:03:35.118Z,20
2022-10-17T06:04:06.861Z,20
2022-10-17T06:04:38.957Z,20
2022-10-17T06:05:11.329Z,20
2022-10-17T06:05:43.147Z,20
2022-10-17T06:06:14.980Z,20
2022-10-17T06:06:46.895Z,20
2022-10-17T06:07:03.891Z,20
2022-10-17T06:07:35.076Z,20
2022-10-17T06:08:18.976Z,21
2022-10-17T06:08:50.734Z,21
2022-10-17T06:09:22.796Z,21
2022-10-17T06:09:55.150Z,21
2022-10-17T06:10:32.338Z,21
2022-10-17T06:10:58.592Z,21
2022-10-17T06:11:30.554Z,21
2022-10-17T06:12:03.405Z,21
2022-10-17T06:12:34.987Z,21
2022-10-17T06:13:06.611Z,21
2022-10-17T06:13:38.645Z,21
2022-10-17T06:14:10.577Z,21
2022-10-17T06:14:42.538Z,21
2022-10-17T06:15:15.831Z,21
2022-10-17T06:15:46.640Z,21
2022-10-17T06:16:03.602Z,21
2022-10-17T06:16:46.607Z,21
2022-10-17T06:17:18.464Z,21
2022-10-17T06:17:50.421Z,21
2022-10-17T06:18:22.502Z,21
2022-10-17T06:18:54.455Z,21
2022-10-17T06:19:26.578Z,21
2022-10-17T06:19:58.322Z,21
2022-10-17T06:20:30.707Z,21
2022-10-17T06:20:46.485Z,21
2022-10-17T06:21:18.263Z,21
2022-10-17T06:21:34.557Z,21
2022-10-17T06:22:06.361Z,21
2022-10-17T06:22:38.168Z,21
2022-10-17T06:23:10.229Z,21
2022-10-17T06:23:42.438Z,21
2022-10-17T06:24:14.273Z,21
2022-10-17T06:24:46.127Z,21
2022-10-17T06:25:03.179Z,21
2022-10-17T06:25:34.106Z,21
2022-10-17T06:26:18.245Z,21
2022-10-17T06:26:49.992Z,21
2022-10-17T06:27:22.002Z,21
2022-10-17T06:27:54.216Z,21
2022-10-17T06:28:26.233Z,20
2022-10-17T06:28:57.939Z,12
2022-10-17T06:29:29.944Z,12
2022-10-17T06:29:46.215Z,13
2022-10-17T06:30:30.317Z,13
2022-10-17T06:31:02.504Z,13
2022-10-17T06:31:33.870Z,13
2022-10-17T06:32:07.562Z,13
2022-10-17T06:32:37.867Z,13
2022-10-17T06:33:09.796Z,13
2022-10-17T06:33:41.883Z,13
2022-10-17T06:34:13.834Z,13
2022-10-17T06:34:45.789Z,13
2022-10-17T06:35:17.971Z,13
2022-10-17T06:35:49.684Z,13
2022-10-17T06:36:21.599Z,13
2022-10-17T06:36:53.886Z,13
2022-10-17T06:37:26.226Z,13
2022-10-17T06:37:57.732Z,13
2022-10-17T06:38:29.545Z,13
2022-10-17T06:38:45.658Z,13
2022-10-17T06:39:17.544Z,13
2022-10-17T06:39:33.761Z,13
2022-10-17T06:40:06.254Z,13
2022-10-17T06:40:37.512Z,13
2022-10-17T06:41:09.574Z,13
2022-10-17T06:41:41.639Z,13
2022-10-17T06:42:13.627Z,13
2022-10-17T06:42:45.664Z,13
2022-10-17T06:43:01.850Z,13
2022-10-17T06:43:33.451Z,13
2022-10-17T06:44:17.349Z,13
2022-10-17T06:44:49.410Z,13
2022-10-17T06:45:22.882Z,13
2022-10-17T06:45:53.431Z,13
2022-10-17T06:46:26.554Z,13
2022-10-17T06:46:57.492Z,13
2022-10-17T06:47:29.256Z,13
2022-10-17T06:48:01.640Z,13
2022-10-17T06:48:33.388Z,13
2022-10-17T06:49:05.541Z,13
2022-10-17T06:49:36.976Z,13
2022-10-17T06:50:09.312Z,13
2022-10-17T06:50:41.322Z,13
2022-10-17T06:51:13.184Z,13
2022-10-17T06:51:45.401Z,13
2022-10-17T06:52:01.268Z,12
2022-10-17T06:52:45.561Z,12
2022-10-17T06:53:17.139Z,12
2022-10-17T06:53:49.018Z,12
2022-10-17T06:54:21.028Z,358
2022-10-17T06:54:53.257Z,358
2022-10-17T06:55:25.193Z,358
2022-10-17T06:55:57.100Z,358
2022-10-17T06:56:28.702Z,358
2022-10-17T06:57:00.848Z,358
2022-10-17T06:57:33.062Z,358
2022-10-17T06:58:05.726Z,358
2022-10-17T06:58:36.740Z,358
2022-10-17T06:59:08.820Z,358
2022-10-17T06:59:40.862Z,358
2022-10-17T07:00:18.959Z,358
2022-10-17T07:00:45.116Z,358
2022-10-17T07:01:01.261Z,358
2022-10-17T07:01:32.839Z,358
2022-10-17T07:02:16.696Z,358
2022-10-17T07:02:48.761Z,341
2022-10-17T07:03:20.518Z,341
2022-10-17T07:03:52.558Z,333
2022-10-17T07:04:24.878Z,312
2022-10-17T07:04:56.667Z,295
2022-10-17T07:05:28.550Z,295
2022-10-17T07:05:44.890Z,295
2022-10-17T07:06:28.452Z,295
2022-10-17T07:07:00.417Z,295
2022-10-17T07:07:32.604Z,295
2022-10-17T07:08:05.202Z,295
2022-10-17T07:08:36.330Z,295
2022-10-17T07:09:08.472Z,295
2022-10-17T07:09:40.605Z,295
2022-10-17T07:10:12.630Z,295
2022-10-17T07:10:44.767Z,295
2022-10-17T07:11:16.372Z,295
2022-10-17T07:11:48.311Z,295
2022-10-17T07:12:20.037Z,295
2022-10-17T07:12:52.143Z,295
2022-10-17T07:13:24.561Z,295
2022-10-17T07:13:56.540Z,295
2022-10-17T07:14:27.975Z,295
2022-10-17T07:14:44.494Z,295
2022-10-17T07:15:19.897Z,295
2022-10-17T07:15:32.179Z,295
2022-10-17T07:16:04.962Z,295
2022-10-17T07:16:36.113Z,295
2022-10-17T07:17:08.073Z,295
2022-10-17T07:17:39.996Z,295
2022-10-17T07:18:12.267Z,295
2022-10-17T07:18:44.303Z,295
2022-10-17T07:18:59.995Z,295
2022-10-17T07:19:31.841Z,295
2022-10-17T07:20:16.168Z,295
2022-10-17T07:20:47.866Z,295
2022-10-17T07:21:19.764Z,295
2022-10-17T07:21:51.796Z,295
2022-10-17T07:22:23.951Z,295